createdAt,value
2018-03-15T00:01:59.390Z,4.10
2018-03-15T00:04:33.983Z,4.10
2018-03-15T00:07:03.892Z,4.00
2018-03-15T00:09:32.275Z,4.00
2018-03-15T00:12:00.641Z,4.00
2018-03-15T00:14:29.039Z,4.10
2018-03-15T00:16:57.461Z,4.10
2018-03-15T00:19:25.870Z,4.10
2018-03-15T00:21:54.242Z,4.10
2018-03-15T00:24:22.830Z,4.00
2018-03-15T00:26:51.210Z,4.00
2018-03-15T00:29:19.590Z,3.90
2018-03-15T00:31:47.996Z,3.90
2018-03-15T00:34:16.381Z,3.90
2018-03-15T00:36:45.546Z,3.80
2018-03-15T00:39:13.929Z,3.80
2018-03-15T00:41:42.342Z,3.80
2018-03-15T00:44:10.711Z,3.80
2018-03-15T00:46:39.094Z,3.70
2018-03-15T00:49:07.493Z,3.70
2018-03-15T00:51:35.871Z,3.70
2018-03-15T00:54:05.039Z,3.80
2018-03-15T00:56:33.423Z,3.70
2018-03-15T00:59:01.963Z,3.70
2018-03-15T01:01:30.354Z,3.70
2018-03-15T01:03:58.737Z,3.70
2018-03-15T01:06:27.142Z,3.70
2018-03-15T01:08:56.275Z,3.70
2018-03-15T01:11:24.686Z,3.70
2018-03-15T01:13:53.066Z,3.70
2018-03-15T01:16:21.495Z,3.60
2018-03-15T01:18:50.654Z,3.50
2018-03-15T01:21:19.023Z,3.50
2018-03-15T01:23:47.417Z,3.50
2018-03-15T01:26:17.289Z,3.40
2018-03-15T01:28:45.684Z,3.40
2018-03-15T01:31:14.050Z,3.40
2018-03-15T01:33:42.634Z,3.40
2018-03-15T01:36:11.010Z,3.40
2018-03-15T01:38:39.386Z,3.40
2018-03-15T01:41:07.781Z,3.40
2018-03-15T01:43:36.147Z,3.40
2018-03-15T01:46:04.550Z,3.30
2018-03-15T01:48:32.921Z,3.40
2018-03-15T01:51:01.595Z,3.30
2018-03-15T01:53:29.968Z,3.30
2018-03-15T01:55:58.350Z,3.40
2018-03-15T01:58:26.758Z,3.40
2018-03-15T02:00:55.137Z,3.30
2018-03-15T02:03:23.541Z,3.30
2018-03-15T02:05:52.669Z,3.40
2018-03-15T02:08:21.088Z,3.40
2018-03-15T02:10:49.457Z,3.40
2018-03-15T02:13:17.849Z,3.40
2018-03-15T02:15:46.250Z,3.50
2018-03-15T02:18:15.382Z,3.60
2018-03-15T02:20:43.775Z,3.60
2018-03-15T02:23:12.141Z,3.60
2018-03-15T02:25:40.734Z,3.50
2018-03-15T02:28:09.102Z,3.50
2018-03-15T02:30:37.476Z,3.50
2018-03-15T02:33:05.883Z,3.50
2018-03-15T02:35:34.258Z,3.50
2018-03-15T02:38:02.663Z,3.50
2018-03-15T02:40:32.550Z,3.40
2018-03-15T02:43:00.980Z,3.40
2018-03-15T02:45:30.113Z,3.40
2018-03-15T02:47:58.490Z,3.40
2018-03-15T02:50:26.892Z,3.50
2018-03-15T02:52:55.297Z,3.50
2018-03-15T02:55:24.469Z,3.50
2018-03-15T02:57:52.873Z,3.50
2018-03-15T03:00:21.533Z,3.50
2018-03-15T03:02:49.902Z,3.50
2018-03-15T03:05:18.271Z,3.50
2018-03-15T03:07:46.670Z,3.50
2018-03-15T03:10:15.046Z,3.40
2018-03-15T03:12:43.450Z,3.40
2018-03-15T03:15:11.827Z,3.40
2018-03-15T03:17:40.361Z,3.40
2018-03-15T03:20:08.730Z,3.30
2018-03-15T03:22:37.098Z,3.30
2018-03-15T03:25:05.486Z,3.30
2018-03-15T03:27:33.860Z,3.30
2018-03-15T03:30:02.263Z,3.30
2018-03-15T03:32:30.629Z,3.30
2018-03-15T03:34:59.031Z,3.30
2018-03-15T03:37:27.417Z,3.30
2018-03-15T03:39:55.829Z,3.30
2018-03-15T03:42:24.994Z,3.30
2018-03-15T03:44:53.370Z,3.30
2018-03-15T03:47:21.762Z,3.30
2018-03-15T03:49:50.142Z,3.40
2018-03-15T03:52:19.523Z,3.40
2018-03-15T03:54:47.895Z,3.40
2018-03-15T03:57:16.261Z,3.30
2018-03-15T03:59:44.650Z,3.30
2018-03-15T04:02:13.030Z,3.30
2018-03-15T04:04:41.480Z,3.30
2018-03-15T04:07:10.604Z,3.20
2018-03-15T04:09:39.008Z,3.20
2018-03-15T04:12:07.382Z,3.10
2018-03-15T04:14:35.749Z,3.10
2018-03-15T04:17:04.169Z,3.10
2018-03-15T04:19:33.315Z,3.10
2018-03-15T04:22:01.702Z,3.10
2018-03-15T04:24:30.075Z,3.10
2018-03-15T04:26:58.474Z,3.00
2018-03-15T04:29:26.854Z,3.10
2018-03-15T04:31:56.031Z,3.10
2018-03-15T04:34:24.423Z,3.00
2018-03-15T04:36:52.802Z,3.00
2018-03-15T04:39:21.195Z,3.00
2018-03-15T04:41:49.567Z,2.90
2018-03-15T04:44:17.977Z,2.90
2018-03-15T04:46:47.122Z,3.00
2018-03-15T04:49:15.493Z,3.00
2018-03-15T04:51:43.884Z,3.00
2018-03-15T04:54:12.254Z,3.10
2018-03-15T04:56:40.656Z,3.00
2018-03-15T04:59:09.806Z,3.00
2018-03-15T05:01:38.321Z,2.90
2018-03-15T05:04:06.698Z,3.00
2018-03-15T05:06:35.079Z,2.90
2018-03-15T05:09:03.470Z,2.90
2018-03-15T05:11:31.837Z,2.90
2018-03-15T05:14:00.226Z,3.00
2018-03-15T05:16:29.375Z,3.00
2018-03-15T05:18:57.793Z,3.00
2018-03-15T05:21:26.172Z,3.00
2018-03-15T05:23:54.542Z,3.00
2018-03-15T05:26:22.930Z,3.00
2018-03-15T05:28:51.324Z,3.10
2018-03-15T05:31:21.238Z,3.00
2018-03-15T05:33:49.602Z,3.00
2018-03-15T05:36:18.264Z,3.00
2018-03-15T05:38:46.642Z,3.00
2018-03-15T05:41:15.506Z,3.00
2018-03-15T05:43:43.900Z,3.00
2018-03-15T05:46:12.278Z,3.00
2018-03-15T05:48:40.684Z,3.00
2018-03-15T05:51:09.065Z,2.90
2018-03-15T05:53:37.478Z,3.00
2018-03-15T05:56:06.619Z,3.00
2018-03-15T05:58:34.996Z,2.90
2018-03-15T06:01:03.413Z,3.00
2018-03-15T06:03:32.574Z,2.90
2018-03-15T06:06:01.060Z,2.90
2018-03-15T06:08:29.432Z,2.80
2018-03-15T06:10:58.016Z,2.80
2018-03-15T06:13:26.389Z,2.90
2018-03-15T06:15:54.778Z,2.90
2018-03-15T06:18:23.182Z,2.80
2018-03-15T06:20:53.067Z,2.80
2018-03-15T06:23:21.461Z,2.70
2018-03-15T06:25:49.834Z,2.90
2018-03-15T06:28:18.234Z,2.90
2018-03-15T06:30:46.606Z,2.90
2018-03-15T06:33:14.982Z,2.90
2018-03-15T06:35:43.374Z,2.90
2018-03-15T06:38:11.749Z,3.00
2018-03-15T06:40:41.650Z,3.00
2018-03-15T06:43:10.018Z,3.00
2018-03-15T06:45:38.414Z,2.90
2018-03-15T06:48:06.807Z,2.90
2018-03-15T06:50:36.684Z,3.00
2018-03-15T06:53:05.088Z,3.00
2018-03-15T06:55:34.233Z,3.10
2018-03-15T06:58:02.639Z,3.10
2018-03-15T07:00:31.019Z,3.10
2018-03-15T07:02:59.445Z,3.20
2018-03-15T07:05:28.596Z,3.20
2018-03-15T07:07:58.716Z,3.20
2018-03-15T07:10:27.142Z,3.20
2018-03-15T07:12:56.268Z,3.30
2018-03-15T07:15:24.785Z,3.30
2018-03-15T07:17:53.153Z,3.30
2018-03-15T07:20:21.552Z,3.30
2018-03-15T07:22:50.678Z,3.30
2018-03-15T07:25:19.909Z,3.50
2018-03-15T07:27:48.278Z,3.50
2018-03-15T07:30:16.648Z,3.60
2018-03-15T07:32:45.041Z,3.80
2018-03-15T07:35:13.417Z,3.90
2018-03-15T07:37:41.807Z,3.90
2018-03-15T07:40:10.178Z,3.90
2018-03-15T07:42:38.576Z,4.00
2018-03-15T07:45:06.993Z,4.00
2018-03-15T07:47:36.135Z,4.00
2018-03-15T07:50:04.545Z,4.00
2018-03-15T07:52:34.425Z,4.10
2018-03-15T07:55:02.827Z,4.10
2018-03-15T07:57:31.214Z,4.20
2018-03-15T07:59:59.613Z,4.20
2018-03-15T08:02:27.984Z,4.20
2018-03-15T08:04:56.350Z,4.30
2018-03-15T08:07:24.740Z,4.50
2018-03-15T08:09:53.182Z,4.70
2018-03-15T08:12:21.576Z,4.90
2018-03-15T08:14:49.958Z,5.10
2018-03-15T08:17:18.728Z,5.30
2018-03-15T08:19:47.091Z,5.40
2018-03-15T08:22:15.470Z,5.60
2018-03-15T08:24:43.865Z,5.80
2018-03-15T08:27:12.243Z,6.00
2018-03-15T08:29:40.641Z,6.40
2018-03-15T08:32:09.019Z,6.90
2018-03-15T08:34:37.577Z,7.50
2018-03-15T08:37:05.963Z,7.90
2018-03-15T08:39:34.359Z,8.10
2018-03-15T08:42:02.771Z,8.30
2018-03-15T08:44:32.005Z,8.70
2018-03-15T08:47:00.402Z,8.60
2018-03-15T08:49:28.803Z,8.80
2018-03-15T08:51:57.459Z,8.80
2018-03-15T08:54:25.830Z,9.20
2018-03-15T08:56:54.203Z,9.30
2018-03-15T08:59:22.600Z,9.30
2018-03-15T09:01:50.976Z,9.10
2018-03-15T09:04:19.509Z,9.10
2018-03-15T09:06:48.554Z,8.90
2018-03-15T09:09:16.983Z,8.90
2018-03-15T09:11:46.206Z,9.20
2018-03-15T09:14:14.598Z,9.20
2018-03-15T09:16:42.995Z,9.40
2018-03-15T09:19:11.399Z,9.90
2018-03-15T09:21:39.810Z,10.20
2018-03-15T09:24:08.190Z,10.80
2018-03-15T09:26:37.357Z,11.20
2018-03-15T09:29:05.762Z,11.50
2018-03-15T09:31:34.906Z,11.60
2018-03-15T09:34:03.347Z,11.60
2018-03-15T09:36:31.761Z,11.80
2018-03-15T09:39:00.206Z,12.00
2018-03-15T09:41:28.618Z,12.50
2018-03-15T09:43:57.029Z,13.30
2018-03-15T09:46:25.466Z,13.90
2018-03-15T09:48:53.906Z,15.00
2018-03-15T09:51:22.371Z,15.60
2018-03-15T09:53:51.516Z,16.20
2018-03-15T09:56:19.921Z,16.20
2018-03-15T09:58:48.354Z,16.50
2018-03-15T10:01:16.755Z,17.10
2018-03-15T10:03:45.197Z,17.30
2018-03-15T10:06:13.615Z,17.70
2018-03-15T10:08:42.052Z,17.80
2018-03-15T10:11:10.470Z,17.90
2018-03-15T10:13:38.875Z,18.10
2018-03-15T10:16:07.302Z,18.20
2018-03-15T10:18:35.719Z,18.00
2018-03-15T10:21:04.149Z,17.40
2018-03-15T10:23:32.551Z,17.10
2018-03-15T10:26:01.361Z,16.80
2018-03-15T10:28:29.774Z,16.40
2018-03-15T10:30:58.970Z,15.50
2018-03-15T10:33:32.951Z,15.50
2018-03-15T10:36:01.359Z,15.50
2018-03-15T10:38:30.610Z,16.30
2018-03-15T10:40:59.122Z,16.30
2018-03-15T10:43:27.543Z,16.80
2018-03-15T10:45:55.946Z,17.40
2018-03-15T10:48:24.408Z,17.60
2018-03-15T10:50:52.823Z,17.50
2018-03-15T10:53:21.235Z,17.30
2018-03-15T10:55:50.434Z,17.10
2018-03-15T10:58:19.629Z,17.00
2018-03-15T11:00:54.458Z,17.20
2018-03-15T11:03:29.258Z,17.10
2018-03-15T11:06:03.148Z,17.10
2018-03-15T11:08:35.544Z,17.40
2018-03-15T11:11:03.985Z,17.80
2018-03-15T11:13:32.399Z,17.80
2018-03-15T11:16:00.859Z,18.00
2018-03-15T11:18:29.304Z,18.50
2018-03-15T11:20:57.975Z,18.80
2018-03-15T11:23:27.162Z,19.20
2018-03-15T11:25:55.563Z,19.10
2018-03-15T11:28:24.765Z,20.80
2018-03-15T11:30:53.929Z,21.60
2018-03-15T11:33:22.468Z,21.60
2018-03-15T11:35:50.865Z,21.50
2018-03-15T11:38:19.275Z,20.70
2018-03-15T11:40:47.699Z,20.20
2018-03-15T11:43:16.935Z,20.30
2018-03-15T11:45:45.429Z,20.60
2018-03-15T11:48:13.866Z,21.00
2018-03-15T11:50:42.646Z,21.80
2018-03-15T11:53:11.779Z,23.10
2018-03-15T11:55:40.200Z,23.00
2018-03-15T11:58:09.423Z,23.20
2018-03-15T12:00:37.862Z,23.20
2018-03-15T12:03:06.326Z,23.20
2018-03-15T12:05:34.738Z,23.70
2018-03-15T12:08:03.912Z,24.20
2018-03-15T12:10:33.086Z,24.50
2018-03-15T12:13:01.486Z,24.50
2018-03-15T12:15:31.416Z,25.50
2018-03-15T12:18:00.586Z,25.60
2018-03-15T12:20:28.993Z,25.50
2018-03-15T12:22:57.386Z,25.30
2018-03-15T12:25:25.804Z,25.40
2018-03-15T12:27:54.308Z,25.10
2018-03-15T12:30:24.272Z,24.20
2018-03-15T12:32:53.457Z,22.90
2018-03-15T12:35:22.607Z,22.50
2018-03-15T12:37:51.017Z,22.50
2018-03-15T12:40:19.414Z,22.50
2018-03-15T12:42:48.980Z,22.20
2018-03-15T12:45:17.358Z,22.20
2018-03-15T12:47:45.747Z,22.20
2018-03-15T12:50:14.725Z,22.30
2018-03-15T12:52:43.103Z,22.50
2018-03-15T12:55:11.518Z,23.10
2018-03-15T12:57:40.678Z,25.20
2018-03-15T13:00:09.117Z,25.10
2018-03-15T13:02:38.301Z,26.70
2018-03-15T13:05:07.450Z,27.30
2018-03-15T13:07:35.854Z,27.20
2018-03-15T13:10:04.235Z,27.50
2018-03-15T13:12:32.643Z,27.90
2018-03-15T13:15:01.786Z,26.60
2018-03-15T13:17:30.217Z,26.60
2018-03-15T13:20:00.052Z,25.30
2018-03-15T13:22:28.432Z,25.30
2018-03-15T13:24:56.842Z,24.90
2018-03-15T13:27:25.218Z,24.80
2018-03-15T13:29:53.629Z,24.30
2018-03-15T13:32:22.790Z,23.20
2018-03-15T13:34:51.221Z,23.20
2018-03-15T13:37:20.366Z,21.30
2018-03-15T13:39:48.762Z,21.30
2018-03-15T13:42:17.218Z,20.10
2018-03-15T13:44:45.620Z,18.70
2018-03-15T13:47:14.025Z,17.50
2018-03-15T13:49:43.215Z,15.80
2018-03-15T13:52:11.726Z,15.80
2018-03-15T13:54:40.215Z,15.20
2018-03-15T13:57:08.611Z,14.80
2018-03-15T13:59:37.027Z,14.30
2018-03-15T14:02:05.414Z,13.90
2018-03-15T14:04:33.842Z,13.70
2018-03-15T14:07:02.309Z,13.50
2018-03-15T14:09:30.756Z,13.30
2018-03-15T14:11:59.134Z,13.20
2018-03-15T14:14:27.523Z,12.90
2018-03-15T14:16:56.698Z,12.50
2018-03-15T14:19:25.838Z,12.40
2018-03-15T14:21:54.239Z,12.40
2018-03-15T14:24:22.617Z,12.20
2018-03-15T14:26:51.262Z,12.10
2018-03-15T14:29:20.436Z,11.70
2018-03-15T14:31:49.597Z,11.60
2018-03-15T14:34:18.007Z,11.60
2018-03-15T14:36:46.407Z,11.50
2018-03-15T14:39:15.584Z,11.30
2018-03-15T14:41:43.970Z,11.30
2018-03-15T14:44:12.660Z,11.20
2018-03-15T14:46:41.047Z,11.10
2018-03-15T14:49:10.199Z,11.10
2018-03-15T14:51:38.618Z,11.00
2018-03-15T14:54:07.950Z,11.00
2018-03-15T14:56:36.363Z,11.00
2018-03-15T14:59:04.759Z,11.10
2018-03-15T15:01:33.175Z,11.10
2018-03-15T15:04:02.352Z,11.10
2018-03-15T15:06:31.504Z,11.10
2018-03-15T15:09:00.404Z,11.10
2018-03-15T15:11:29.159Z,11.00
2018-03-15T15:13:57.702Z,11.00
2018-03-15T15:16:26.162Z,11.00
2018-03-15T15:18:54.944Z,11.00
2018-03-15T15:21:23.352Z,10.90
2018-03-15T15:23:51.970Z,10.90
2018-03-15T15:26:20.382Z,10.80
2018-03-15T15:28:48.781Z,10.80
2018-03-15T15:31:17.186Z,10.90
2018-03-15T15:33:46.340Z,10.90
2018-03-15T15:36:15.026Z,10.80
2018-03-15T15:38:43.410Z,10.80
2018-03-15T15:41:11.795Z,10.80
2018-03-15T15:43:40.551Z,10.80
2018-03-15T15:46:10.612Z,10.80
2018-03-15T15:48:40.664Z,10.80
2018-03-15T15:51:09.647Z,10.80
2018-03-15T15:53:39.415Z,10.70
2018-03-15T15:56:07.830Z,10.60
2018-03-15T15:58:37.014Z,10.60
2018-03-15T16:01:06.591Z,10.50
2018-03-15T16:03:35.123Z,10.50
2018-03-15T16:06:03.871Z,10.50
2018-03-15T16:08:32.246Z,10.40
2018-03-15T16:11:01.239Z,10.30
2018-03-15T16:13:29.655Z,10.30
2018-03-15T16:15:59.186Z,10.20
2018-03-15T16:18:27.634Z,10.20
2018-03-15T16:20:56.820Z,10.10
2018-03-15T16:23:25.266Z,10.10
2018-03-15T16:25:54.560Z,10.10
2018-03-15T16:28:24.275Z,10.20
2018-03-15T16:30:52.788Z,10.20
2018-03-15T16:33:21.217Z,10.20
2018-03-15T16:35:50.132Z,10.30
2018-03-15T16:38:19.018Z,10.30
2018-03-15T16:40:48.454Z,10.20
2018-03-15T16:43:17.124Z,10.20
2018-03-15T16:45:46.100Z,10.20
2018-03-15T16:48:14.551Z,10.20
2018-03-15T16:50:44.050Z,10.20
2018-03-15T16:53:12.589Z,10.20
2018-03-15T16:55:41.456Z,10.20
2018-03-15T16:58:10.019Z,10.20
2018-03-15T17:00:38.410Z,10.10
2018-03-15T17:03:06.861Z,10.10
2018-03-15T17:05:36.039Z,10.10
2018-03-15T17:08:06.469Z,10.10
2018-03-15T17:10:35.746Z,10.10
2018-03-15T17:13:04.129Z,10.10
2018-03-15T17:15:32.543Z,10.10
2018-03-15T17:18:00.958Z,10.10
2018-03-15T17:20:29.379Z,10.00
2018-03-15T17:22:58.824Z,9.90
2018-03-15T17:25:27.562Z,9.90
2018-03-15T17:27:55.973Z,9.90
2018-03-15T17:30:24.360Z,9.90
2018-03-15T17:32:53.258Z,9.90
2018-03-15T17:35:21.658Z,9.90
2018-03-15T17:37:50.682Z,9.90
2018-03-15T17:40:19.082Z,9.80
2018-03-15T17:42:49.219Z,9.70
2018-03-15T17:45:18.914Z,9.70
2018-03-15T17:47:48.101Z,9.80
2018-03-15T17:50:17.413Z,9.80
2018-03-15T17:52:46.270Z,9.80
2018-03-15T17:55:14.679Z,9.80
2018-03-15T17:57:43.081Z,9.90
2018-03-15T18:00:11.684Z,9.80
2018-03-15T18:02:40.220Z,9.80
2018-03-15T18:05:09.782Z,9.70
2018-03-15T18:07:38.162Z,9.70
2018-03-15T18:10:06.543Z,9.70
2018-03-15T18:12:34.951Z,9.60
2018-03-15T18:15:04.110Z,9.60
2018-03-15T18:17:32.980Z,9.50
2018-03-15T18:20:01.435Z,9.50
2018-03-15T18:22:30.102Z,9.50
2018-03-15T18:24:59.541Z,9.40
2018-03-15T18:27:28.116Z,9.40
2018-03-15T18:29:56.936Z,9.40
2018-03-15T18:32:25.409Z,9.40
2018-03-15T18:34:53.847Z,9.30
2018-03-15T18:37:23.192Z,9.30
2018-03-15T18:39:51.607Z,9.30
2018-03-15T18:42:19.995Z,9.20
2018-03-15T18:44:48.371Z,9.20
2018-03-15T18:47:17.953Z,9.20
2018-03-15T18:49:46.776Z,9.10
2018-03-15T18:52:15.223Z,9.10
2018-03-15T18:54:43.634Z,9.10
2018-03-15T18:57:12.837Z,9.10
2018-03-15T18:59:41.292Z,9.00
2018-03-15T19:02:09.662Z,9.00
2018-03-15T19:04:38.154Z,9.00
2018-03-15T19:07:07.329Z,9.10
2018-03-15T19:09:35.846Z,9.00
2018-03-15T19:12:04.991Z,9.00
2018-03-15T19:14:33.781Z,9.00
2018-03-15T19:17:02.162Z,9.00
2018-03-15T19:19:30.538Z,9.00
2018-03-15T19:21:58.977Z,9.00
2018-03-15T19:24:28.119Z,8.90
2018-03-15T19:26:56.701Z,8.80
2018-03-15T19:29:25.347Z,8.80
2018-03-15T19:31:54.483Z,8.90
2018-03-15T19:34:23.032Z,8.90
2018-03-15T19:36:52.937Z,8.80
2018-03-15T19:39:22.250Z,8.80
2018-03-15T19:41:51.068Z,8.80
2018-03-15T19:44:19.698Z,8.90
2018-03-15T19:46:49.421Z,8.80
2018-03-15T19:49:19.155Z,8.90
2018-03-15T19:51:49.504Z,8.80
2018-03-15T19:54:18.263Z,8.90
2018-03-15T19:56:47.207Z,8.90
2018-03-15T19:59:16.187Z,8.90
2018-03-15T20:01:44.962Z,9.00
2018-03-15T20:04:14.568Z,9.10
2018-03-15T20:06:43.453Z,9.00
2018-03-15T20:09:12.250Z,9.00
2018-03-15T20:11:41.262Z,9.00
2018-03-15T20:14:10.156Z,9.00
2018-03-15T20:16:39.629Z,9.20
2018-03-15T20:19:13.561Z,9.10
2018-03-15T20:21:42.959Z,9.20
2018-03-15T20:24:19.080Z,9.20
2018-03-15T20:26:48.036Z,9.20
2018-03-15T20:29:18.384Z,9.30
2018-03-15T20:31:47.247Z,9.30
2018-03-15T20:34:15.956Z,9.30
2018-03-15T20:36:44.576Z,9.30
2018-03-15T20:39:19.639Z,9.30
2018-03-15T20:41:50.059Z,9.30
2018-03-15T20:44:18.723Z,9.30
2018-03-15T20:46:53.965Z,9.30
2018-03-15T20:49:25.090Z,9.20
2018-03-15T20:51:53.796Z,9.20
2018-03-15T20:54:23.053Z,9.20
2018-03-15T20:56:51.889Z,9.10
2018-03-15T20:59:21.038Z,9.00
2018-03-15T21:01:49.906Z,9.00
2018-03-15T21:04:18.668Z,8.90
2018-03-15T21:06:49.760Z,9.00
2018-03-15T21:09:19.125Z,9.10
2018-03-15T21:11:48.992Z,9.10
2018-03-15T21:14:18.447Z,9.20
2018-03-15T21:16:47.475Z,9.20
2018-03-15T21:19:16.755Z,9.20
2018-03-15T21:21:45.692Z,9.10
2018-03-15T21:24:15.089Z,9.10
2018-03-15T21:26:45.164Z,9.10
2018-03-15T21:29:15.436Z,9.10
2018-03-15T21:31:44.231Z,9.10
2018-03-15T21:34:13.454Z,9.00
2018-03-15T21:36:48.008Z,9.00
2018-03-15T21:39:17.006Z,9.00
2018-03-15T21:41:45.924Z,9.10
2018-03-15T21:44:16.051Z,9.10
2018-03-15T21:46:45.195Z,9.10
2018-03-15T21:49:15.574Z,9.00
2018-03-15T21:51:47.042Z,9.10
2018-03-15T21:54:17.020Z,9.00
2018-03-15T21:56:46.136Z,9.00
2018-03-15T21:59:14.630Z,9.00
2018-03-15T22:01:43.384Z,9.00
2018-03-15T22:04:12.143Z,9.00
2018-03-15T22:06:40.771Z,9.00
2018-03-15T22:09:09.366Z,8.90
2018-03-15T22:11:39.459Z,8.90
2018-03-15T22:14:08.648Z,8.80
2018-03-15T22:16:37.267Z,8.80
2018-03-15T22:19:06.056Z,8.80
2018-03-15T22:21:36.175Z,8.80
2018-03-15T22:24:05.738Z,8.70
2018-03-15T22:26:35.962Z,8.70
2018-03-15T22:29:05.107Z,8.70
2018-03-15T22:31:36.370Z,8.80
2018-03-15T22:34:05.935Z,8.70
2018-03-15T22:36:34.934Z,8.80
2018-03-15T22:39:03.940Z,8.70
2018-03-15T22:41:33.320Z,8.70
2018-03-15T22:44:02.239Z,8.70
2018-03-15T22:46:31.016Z,8.70
2018-03-15T22:48:59.948Z,8.60
2018-03-15T22:51:29.308Z,8.60
2018-03-15T22:53:57.995Z,8.60
2018-03-15T22:56:26.786Z,8.60
2018-03-15T22:58:55.460Z,8.60
2018-03-15T23:01:24.871Z,8.50
2018-03-15T23:03:53.438Z,8.60
2018-03-15T23:06:22.038Z,8.60
2018-03-15T23:08:50.619Z,8.50
2018-03-15T23:11:19.243Z,8.50
2018-03-15T23:13:48.583Z,8.40
2018-03-15T23:16:17.085Z,8.40
2018-03-15T23:18:46.028Z,8.40
2018-03-15T23:21:14.662Z,8.40
2018-03-15T23:23:43.244Z,8.40
2018-03-15T23:26:11.816Z,8.30
2018-03-15T23:28:40.710Z,8.30
2018-03-15T23:31:09.357Z,8.40
2018-03-15T23:33:37.973Z,8.40
2018-03-15T23:36:06.791Z,8.40
2018-03-15T23:38:35.416Z,8.40
2018-03-15T23:41:04.650Z,8.40
2018-03-15T23:43:33.240Z,8.40
2018-03-15T23:46:01.861Z,8.40
2018-03-15T23:48:30.616Z,8.30
2018-03-15T23:50:59.250Z,8.30
2018-03-15T23:53:28.086Z,8.30
2018-03-15T23:55:56.512Z,8.40
2018-03-15T23:58:25.774Z,8.50
